sensor_id;sensor_type;location;lat;lon;timestamp;temperature;humidity
4697;DHT22;2362;50.780;0.292;2023-09-19T00:00:34;15.70;99.90
4697;DHT22;2362;50.780;0.292;2023-09-19T00:03:01;15.70;99.90
4697;DHT22;2362;50.780;0.292;2023-09-19T00:05:28;15.60;99.90
4697;DHT22;2362;50.780;0.292;2023-09-19T00:07:55;15.60;99.90
4697;DHT22;2362;50.780;0.292;2023-09-19T00:10:22;15.60;99.90
4697;DHT22;2362;50.780;0.292;2023-09-19T00:12:51;15.60;99.90
4697;DHT22;2362;50.780;0.292;2023-09-19T00:15:18;15.50;99.90
4697;DHT22;2362;50.780;0.292;2023-09-19T00:17:45;15.40;99.90
4697;DHT22;2362;50.780;0.292;2023-09-19T00:20:13;15.50;99.90
4697;DHT22;2362;50.780;0.292;2023-09-19T00:22:41;15.50;99.90
4697;DHT22;2362;50.780;0.292;2023-09-19T00:25:08;15.50;99.90
4697;DHT22;2362;50.780;0.292;2023-09-19T00:27:35;15.50;99.90
4697;DHT22;2362;50.780;0.292;2023-09-19T00:30:10;15.50;99.90
4697;DHT22;2362;50.780;0.292;2023-09-19T00:32:41;15.40;99.90
4697;DHT22;2362;50.780;0.292;2023-09-19T00:35:08;15.40;99.90
4697;DHT22;2362;50.780;0.292;2023-09-19T00:37:35;15.50;99.90
4697;DHT22;2362;50.780;0.292;2023-09-19T00:40:02;15.60;99.90
4697;DHT22;2362;50.780;0.292;2023-09-19T00:42:28;15.60;99.90
4697;DHT22;2362;50.780;0.292;2023-09-19T00:44:54;15.50;99.90
4697;DHT22;2362;50.780;0.292;2023-09-19T00:47:20;15.50;99.90
4697;DHT22;2362;50.780;0.292;2023-09-19T00:49:46;15.60;99.90
4697;DHT22;2362;50.780;0.292;2023-09-19T00:52:15;15.60;99.90
4697;DHT22;2362;50.780;0.292;2023-09-19T00:54:41;15.60;99.90
4697;DHT22;2362;50.780;0.292;2023-09-19T00:57:07;15.60;99.90
4697;DHT22;2362;50.780;0.292;2023-09-19T00:59:34;15.60;99.90
4697;DHT22;2362;50.780;0.292;2023-09-19T01:02:02;15.60;99.90
4697;DHT22;2362;50.780;0.292;2023-09-19T01:04:29;15.70;99.90
4697;DHT22;2362;50.780;0.292;2023-09-19T01:06:56;15.70;99.90
4697;DHT22;2362;50.780;0.292;2023-09-19T01:09:23;15.70;99.90
4697;DHT22;2362;50.780;0.292;2023-09-19T01:11:50;15.60;99.90
4697;DHT22;2362;50.780;0.292;2023-09-19T01:14:55;15.50;99.90
4697;DHT22;2362;50.780;0.292;2023-09-19T01:17:39;15.50;99.90
4697;DHT22;2362;50.780;0.292;2023-09-19T01:20:17;15.60;99.90
4697;DHT22;2362;50.780;0.292;2023-09-19T01:23:04;15.60;99.90
4697;DHT22;2362;50.780;0.292;2023-09-19T01:31:21;15.70;99.90
4697;DHT22;2362;50.780;0.292;2023-09-19T01:34:00;15.80;99.90
4697;DHT22;2362;50.780;0.292;2023-09-19T01:36:28;15.80;99.90
4697;DHT22;2362;50.780;0.292;2023-09-19T01:38:55;15.90;99.90
4697;DHT22;2362;50.780;0.292;2023-09-19T01:41:29;15.80;99.90
4697;DHT22;2362;50.780;0.292;2023-09-19T01:44:01;15.80;99.90
4697;DHT22;2362;50.780;0.292;2023-09-19T01:46:39;15.70;99.90
4697;DHT22;2362;50.780;0.292;2023-09-19T01:52:13;15.60;99.90
4697;DHT22;2362;50.780;0.292;2023-09-19T01:54:48;15.60;99.90
4697;DHT22;2362;50.780;0.292;2023-09-19T01:57:22;15.50;99.90
4697;DHT22;2362;50.780;0.292;2023-09-19T02:00:06;15.50;99.90
4697;DHT22;2362;50.780;0.292;2023-09-19T02:02:40;15.40;99.90
4697;DHT22;2362;50.780;0.292;2023-09-19T02:05:07;15.40;99.90
4697;DHT22;2362;50.780;0.292;2023-09-19T02:07:33;15.40;99.90
4697;DHT22;2362;50.780;0.292;2023-09-19T02:10:04;15.40;99.90
4697;DHT22;2362;50.780;0.292;2023-09-19T02:12:31;15.30;99.90
4697;DHT22;2362;50.780;0.292;2023-09-19T02:14:58;15.20;99.90
4697;DHT22;2362;50.780;0.292;2023-09-19T02:17:25;15.20;99.90
4697;DHT22;2362;50.780;0.292;2023-09-19T02:19:54;15.20;99.90
4697;DHT22;2362;50.780;0.292;2023-09-19T02:22:21;15.20;99.90
4697;DHT22;2362;50.780;0.292;2023-09-19T02:24:50;15.20;99.90
4697;DHT22;2362;50.780;0.292;2023-09-19T02:27:16;15.20;99.90
4697;DHT22;2362;50.780;0.292;2023-09-19T02:29:45;15.30;99.90
4697;DHT22;2362;50.780;0.292;2023-09-19T02:32:11;15.20;99.90
4697;DHT22;2362;50.780;0.292;2023-09-19T02:34:36;15.30;99.90
4697;DHT22;2362;50.780;0.292;2023-09-19T02:37:05;15.20;99.90
4697;DHT22;2362;50.780;0.292;2023-09-19T02:39:32;15.10;99.90
4697;DHT22;2362;50.780;0.292;2023-09-19T02:41:57;15.10;99.90
4697;DHT22;2362;50.780;0.292;2023-09-19T02:44:23;15.20;99.90
4697;DHT22;2362;50.780;0.292;2023-09-19T02:46:49;15.20;99.90
4697;DHT22;2362;50.780;0.292;2023-09-19T02:49:15;15.30;99.90
4697;DHT22;2362;50.780;0.292;2023-09-19T02:51:41;15.40;99.90
4697;DHT22;2362;50.780;0.292;2023-09-19T02:54:07;15.30;99.90
4697;DHT22;2362;50.780;0.292;2023-09-19T02:56:33;15.30;99.90
4697;DHT22;2362;50.780;0.292;2023-09-19T02:58:59;15.40;99.90
4697;DHT22;2362;50.780;0.292;2023-09-19T03:01:26;15.50;99.90
4697;DHT22;2362;50.780;0.292;2023-09-19T03:03:53;15.50;99.90
4697;DHT22;2362;50.780;0.292;2023-09-19T03:06:19;15.60;99.90
4697;DHT22;2362;50.780;0.292;2023-09-19T03:08:46;15.70;99.90
4697;DHT22;2362;50.780;0.292;2023-09-19T03:11:12;15.70;99.90
4697;DHT22;2362;50.780;0.292;2023-09-19T03:13:40;15.60;99.90
4697;DHT22;2362;50.780;0.292;2023-09-19T03:16:08;15.60;99.90
4697;DHT22;2362;50.780;0.292;2023-09-19T03:18:36;15.60;99.90
4697;DHT22;2362;50.780;0.292;2023-09-19T03:21:02;15.70;99.90
4697;DHT22;2362;50.780;0.292;2023-09-19T03:23:29;15.80;99.90
4697;DHT22;2362;50.780;0.292;2023-09-19T03:25:55;15.90;99.90
4697;DHT22;2362;50.780;0.292;2023-09-19T03:28:22;15.90;99.90
4697;DHT22;2362;50.780;0.292;2023-09-19T03:31:02;15.90;99.90
4697;DHT22;2362;50.780;0.292;2023-09-19T03:33:28;15.90;99.90
4697;DHT22;2362;50.780;0.292;2023-09-19T03:35:54;15.80;99.90
4697;DHT22;2362;50.780;0.292;2023-09-19T03:38:20;15.80;99.90
4697;DHT22;2362;50.780;0.292;2023-09-19T03:40:47;15.80;99.90
4697;DHT22;2362;50.780;0.292;2023-09-19T03:43:14;15.90;99.90
4697;DHT22;2362;50.780;0.292;2023-09-19T03:45:40;15.90;99.90
4697;DHT22;2362;50.780;0.292;2023-09-19T03:48:10;16.00;99.90
4697;DHT22;2362;50.780;0.292;2023-09-19T03:50:36;16.10;99.90
4697;DHT22;2362;50.780;0.292;2023-09-19T03:53:01;16.10;99.90
4697;DHT22;2362;50.780;0.292;2023-09-19T03:55:27;16.20;99.90
4697;DHT22;2362;50.780;0.292;2023-09-19T03:57:53;16.20;99.90
4697;DHT22;2362;50.780;0.292;2023-09-19T04:00:19;16.30;99.90
4697;DHT22;2362;50.780;0.292;2023-09-19T04:02:48;16.30;99.90
4697;DHT22;2362;50.780;0.292;2023-09-19T04:05:14;16.30;99.90
4697;DHT22;2362;50.780;0.292;2023-09-19T04:07:39;16.30;99.90
4697;DHT22;2362;50.780;0.292;2023-09-19T04:10:05;16.30;99.90
4697;DHT22;2362;50.780;0.292;2023-09-19T04:12:34;16.30;99.90
4697;DHT22;2362;50.780;0.292;2023-09-19T04:14:59;16.30;99.90
4697;DHT22;2362;50.780;0.292;2023-09-19T04:17:25;16.30;99.90
4697;DHT22;2362;50.780;0.292;2023-09-19T04:19:51;16.30;99.90
4697;DHT22;2362;50.780;0.292;2023-09-19T04:22:16;16.20;99.90
4697;DHT22;2362;50.780;0.292;2023-09-19T04:24:42;16.10;99.90
4697;DHT22;2362;50.780;0.292;2023-09-19T04:27:08;16.10;99.90
4697;DHT22;2362;50.780;0.292;2023-09-19T04:29:35;16.10;99.90
4697;DHT22;2362;50.780;0.292;2023-09-19T04:32:01;16.10;99.90
4697;DHT22;2362;50.780;0.292;2023-09-19T04:34:30;16.20;99.90
4697;DHT22;2362;50.780;0.292;2023-09-19T04:36:56;16.20;99.90
4697;DHT22;2362;50.780;0.292;2023-09-19T04:39:23;16.20;99.90
4697;DHT22;2362;50.780;0.292;2023-09-19T04:41:51;16.30;99.90
4697;DHT22;2362;50.780;0.292;2023-09-19T04:44:17;16.30;99.90
4697;DHT22;2362;50.780;0.292;2023-09-19T04:46:44;16.30;99.90
4697;DHT22;2362;50.780;0.292;2023-09-19T04:49:09;16.30;99.90
4697;DHT22;2362;50.780;0.292;2023-09-19T04:51:35;16.30;99.90
4697;DHT22;2362;50.780;0.292;2023-09-19T04:54:01;16.30;99.90
4697;DHT22;2362;50.780;0.292;2023-09-19T04:56:28;16.40;99.90
4697;DHT22;2362;50.780;0.292;2023-09-19T04:58:54;16.40;99.90
4697;DHT22;2362;50.780;0.292;2023-09-19T05:01:20;16.40;99.90
4697;DHT22;2362;50.780;0.292;2023-09-19T05:03:48;16.40;99.90
4697;DHT22;2362;50.780;0.292;2023-09-19T05:06:18;16.40;99.90
4697;DHT22;2362;50.780;0.292;2023-09-19T05:08:44;16.50;99.90
4697;DHT22;2362;50.780;0.292;2023-09-19T05:11:09;16.40;99.90
4697;DHT22;2362;50.780;0.292;2023-09-19T05:13:35;16.40;99.90
4697;DHT22;2362;50.780;0.292;2023-09-19T05:16:01;16.50;99.90
4697;DHT22;2362;50.780;0.292;2023-09-19T05:18:29;16.50;99.90
4697;DHT22;2362;50.780;0.292;2023-09-19T05:20:55;16.50;99.90
4697;DHT22;2362;50.780;0.292;2023-09-19T05:23:21;16.50;99.90
4697;DHT22;2362;50.780;0.292;2023-09-19T05:25:47;16.40;99.90
4697;DHT22;2362;50.780;0.292;2023-09-19T05:28:12;16.40;99.90
4697;DHT22;2362;50.780;0.292;2023-09-19T05:30:40;16.40;99.90
4697;DHT22;2362;50.780;0.292;2023-09-19T05:33:07;16.30;99.90
4697;DHT22;2362;50.780;0.292;2023-09-19T05:35:33;16.40;99.90
4697;DHT22;2362;50.780;0.292;2023-09-19T05:37:59;16.40;99.90
4697;DHT22;2362;50.780;0.292;2023-09-19T05:40:25;16.30;99.90
4697;DHT22;2362;50.780;0.292;2023-09-19T05:42:51;16.20;99.90
4697;DHT22;2362;50.780;0.292;2023-09-19T05:45:17;16.10;99.90
4697;DHT22;2362;50.780;0.292;2023-09-19T05:47:48;16.10;99.90
4697;DHT22;2362;50.780;0.292;2023-09-19T05:50:14;16.10;99.90
4697;DHT22;2362;50.780;0.292;2023-09-19T05:52:42;16.20;99.90
4697;DHT22;2362;50.780;0.292;2023-09-19T05:55:08;16.30;99.90
4697;DHT22;2362;50.780;0.292;2023-09-19T05:57:37;16.40;99.90
4697;DHT22;2362;50.780;0.292;2023-09-19T06:00:08;16.50;99.90
4697;DHT22;2362;50.780;0.292;2023-09-19T06:02:37;16.50;99.90
4697;DHT22;2362;50.780;0.292;2023-09-19T06:05:04;16.50;99.90
4697;DHT22;2362;50.780;0.292;2023-09-19T06:07:32;16.60;99.90
4697;DHT22;2362;50.780;0.292;2023-09-19T06:10:03;16.50;99.90
4697;DHT22;2362;50.780;0.292;2023-09-19T06:12:31;16.60;99.90
4697;DHT22;2362;50.780;0.292;2023-09-19T06:14:59;16.60;99.90
4697;DHT22;2362;50.780;0.292;2023-09-19T06:17:25;16.30;99.90
4697;DHT22;2362;50.780;0.292;2023-09-19T06:19:53;16.00;99.90
4697;DHT22;2362;50.780;0.292;2023-09-19T06:22:18;15.90;99.90
4697;DHT22;2362;50.780;0.292;2023-09-19T06:24:45;15.80;99.90
4697;DHT22;2362;50.780;0.292;2023-09-19T06:27:12;15.80;99.90
4697;DHT22;2362;50.780;0.292;2023-09-19T06:29:38;15.80;99.90
4697;DHT22;2362;50.780;0.292;2023-09-19T06:32:08;16.00;99.90
4697;DHT22;2362;50.780;0.292;2023-09-19T06:34:34;16.00;99.90
4697;DHT22;2362;50.780;0.292;2023-09-19T06:37:00;16.00;99.90
4697;DHT22;2362;50.780;0.292;2023-09-19T06:39:26;16.10;99.90
4697;DHT22;2362;50.780;0.292;2023-09-19T06:41:52;16.20;99.90
4697;DHT22;2362;50.780;0.292;2023-09-19T06:44:21;16.20;99.90
4697;DHT22;2362;50.780;0.292;2023-09-19T06:46:50;16.30;99.90
4697;DHT22;2362;50.780;0.292;2023-09-19T06:49:17;16.30;99.90
4697;DHT22;2362;50.780;0.292;2023-09-19T06:51:43;16.30;99.90
4697;DHT22;2362;50.780;0.292;2023-09-19T06:54:10;16.40;99.90
4697;DHT22;2362;50.780;0.292;2023-09-19T06:56:35;16.50;99.90
4697;DHT22;2362;50.780;0.292;2023-09-19T06:59:01;16.50;99.90
4697;DHT22;2362;50.780;0.292;2023-09-19T07:01:29;16.50;99.90
4697;DHT22;2362;50.780;0.292;2023-09-19T07:03:55;16.60;99.90
4697;DHT22;2362;50.780;0.292;2023-09-19T07:06:20;16.60;99.90
4697;DHT22;2362;50.780;0.292;2023-09-19T07:08:46;16.70;99.90
4697;DHT22;2362;50.780;0.292;2023-09-19T07:11:12;16.70;99.90
4697;DHT22;2362;50.780;0.292;2023-09-19T07:13:38;16.80;99.90
4697;DHT22;2362;50.780;0.292;2023-09-19T07:16:04;16.90;99.90
4697;DHT22;2362;50.780;0.292;2023-09-19T07:18:30;16.90;99.90
4697;DHT22;2362;50.780;0.292;2023-09-19T07:20:57;16.90;99.90
4697;DHT22;2362;50.780;0.292;2023-09-19T07:23:26;16.90;99.90
4697;DHT22;2362;50.780;0.292;2023-09-19T07:25:52;16.90;99.90
4697;DHT22;2362;50.780;0.292;2023-09-19T07:28:21;16.90;99.90
4697;DHT22;2362;50.780;0.292;2023-09-19T07:30:48;16.90;99.90
4697;DHT22;2362;50.780;0.292;2023-09-19T07:33:13;16.90;99.90
4697;DHT22;2362;50.780;0.292;2023-09-19T07:35:40;16.80;99.90
4697;DHT22;2362;50.780;0.292;2023-09-19T07:38:06;16.60;99.90
4697;DHT22;2362;50.780;0.292;2023-09-19T07:40:32;16.60;99.90
4697;DHT22;2362;50.780;0.292;2023-09-19T07:42:58;16.60;99.90
4697;DHT22;2362;50.780;0.292;2023-09-19T07:45:31;16.60;99.90
4697;DHT22;2362;50.780;0.292;2023-09-19T07:47:57;16.60;99.90
4697;DHT22;2362;50.780;0.292;2023-09-19T07:50:22;16.70;99.90
4697;DHT22;2362;50.780;0.292;2023-09-19T07:52:50;16.80;99.90
4697;DHT22;2362;50.780;0.292;2023-09-19T07:55:19;16.80;99.90
4697;DHT22;2362;50.780;0.292;2023-09-19T07:57:48;16.80;99.90
4697;DHT22;2362;50.780;0.292;2023-09-19T08:00:14;16.90;99.90
4697;DHT22;2362;50.780;0.292;2023-09-19T08:02:40;17.00;99.90
4697;DHT22;2362;50.780;0.292;2023-09-19T08:05:08;17.00;99.90
4697;DHT22;2362;50.780;0.292;2023-09-19T08:07:41;17.10;99.90
4697;DHT22;2362;50.780;0.292;2023-09-19T08:10:08;17.10;99.90
4697;DHT22;2362;50.780;0.292;2023-09-19T08:12:39;17.30;99.90
4697;DHT22;2362;50.780;0.292;2023-09-19T08:15:16;17.30;99.90
4697;DHT22;2362;50.780;0.292;2023-09-19T08:17:42;17.40;99.90
4697;DHT22;2362;50.780;0.292;2023-09-19T08:20:09;17.40;99.90
4697;DHT22;2362;50.780;0.292;2023-09-19T08:22:43;17.50;99.90
4697;DHT22;2362;50.780;0.292;2023-09-19T08:25:11;17.60;99.90
4697;DHT22;2362;50.780;0.292;2023-09-19T08:27:37;17.60;99.90
4697;DHT22;2362;50.780;0.292;2023-09-19T08:30:03;17.60;99.90
4697;DHT22;2362;50.780;0.292;2023-09-19T08:32:29;17.60;99.90
4697;DHT22;2362;50.780;0.292;2023-09-19T08:34:54;17.70;99.90
4697;DHT22;2362;50.780;0.292;2023-09-19T08:37:20;17.70;99.90
4697;DHT22;2362;50.780;0.292;2023-09-19T08:39:46;17.80;99.90
4697;DHT22;2362;50.780;0.292;2023-09-19T08:42:12;17.90;99.90
4697;DHT22;2362;50.780;0.292;2023-09-19T08:44:39;17.90;99.90
4697;DHT22;2362;50.780;0.292;2023-09-19T08:47:11;17.80;99.90
4697;DHT22;2362;50.780;0.292;2023-09-19T08:50:08;17.90;99.90
4697;DHT22;2362;50.780;0.292;2023-09-19T08:52:43;18.00;99.90
4697;DHT22;2362;50.780;0.292;2023-09-19T08:55:13;18.10;99.90
4697;DHT22;2362;50.780;0.292;2023-09-19T08:57:45;18.20;99.90
4697;DHT22;2362;50.780;0.292;2023-09-19T09:00:15;18.30;99.90
4697;DHT22;2362;50.780;0.292;2023-09-19T09:02:44;18.30;99.90
4697;DHT22;2362;50.780;0.292;2023-09-19T09:05:11;18.40;99.90
4697;DHT22;2362;50.780;0.292;2023-09-19T09:07:40;18.20;99.90
4697;DHT22;2362;50.780;0.292;2023-09-19T09:10:07;18.10;99.90
4697;DHT22;2362;50.780;0.292;2023-09-19T09:12:35;18.10;99.90
4697;DHT22;2362;50.780;0.292;2023-09-19T09:15:02;18.30;99.90
4697;DHT22;2362;50.780;0.292;2023-09-19T09:17:29;18.50;99.90
4697;DHT22;2362;50.780;0.292;2023-09-19T09:19:56;18.60;99.90
4697;DHT22;2362;50.780;0.292;2023-09-19T09:22:22;18.70;99.90
4697;DHT22;2362;50.780;0.292;2023-09-19T09:24:56;18.60;99.90
4697;DHT22;2362;50.780;0.292;2023-09-19T09:27:27;18.70;99.90
4697;DHT22;2362;50.780;0.292;2023-09-19T09:29:53;18.70;99.90
4697;DHT22;2362;50.780;0.292;2023-09-19T09:32:28;18.70;99.90
4697;DHT22;2362;50.780;0.292;2023-09-19T09:34:56;18.60;99.90
4697;DHT22;2362;50.780;0.292;2023-09-19T09:37:22;18.70;99.90
4697;DHT22;2362;50.780;0.292;2023-09-19T09:39:54;18.70;99.90
4697;DHT22;2362;50.780;0.292;2023-09-19T09:45:18;18.60;99.90
4697;DHT22;2362;50.780;0.292;2023-09-19T09:47:48;18.80;99.90
4697;DHT22;2362;50.780;0.292;2023-09-19T09:50:30;19.20;99.90
4697;DHT22;2362;50.780;0.292;2023-09-19T09:53:21;19.40;99.90
4697;DHT22;2362;50.780;0.292;2023-09-19T09:58:30;19.20;99.90
4697;DHT22;2362;50.780;0.292;2023-09-19T10:00:59;19.20;99.90
4697;DHT22;2362;50.780;0.292;2023-09-19T10:03:46;19.10;99.90
4697;DHT22;2362;50.780;0.292;2023-09-19T10:06:17;19.00;99.90
4697;DHT22;2362;50.780;0.292;2023-09-19T10:09:02;19.00;99.90
4697;DHT22;2362;50.780;0.292;2023-09-19T10:11:44;18.80;99.90
4697;DHT22;2362;50.780;0.292;2023-09-19T10:14:15;18.60;99.90
4697;DHT22;2362;50.780;0.292;2023-09-19T10:16:48;18.50;99.90
4697;DHT22;2362;50.780;0.292;2023-09-19T10:19:50;18.40;99.90
4697;DHT22;2362;50.780;0.292;2023-09-19T10:22:19;18.40;99.90
4697;DHT22;2362;50.780;0.292;2023-09-19T10:24:49;18.70;99.90
4697;DHT22;2362;50.780;0.292;2023-09-19T10:27:25;18.90;99.90
4697;DHT22;2362;50.780;0.292;2023-09-19T10:29:52;18.80;99.90
4697;DHT22;2362;50.780;0.292;2023-09-19T10:32:22;19.00;99.90
4697;DHT22;2362;50.780;0.292;2023-09-19T10:34:49;19.10;99.90
4697;DHT22;2362;50.780;0.292;2023-09-19T10:37:16;19.20;99.90
4697;DHT22;2362;50.780;0.292;2023-09-19T10:39:46;19.20;99.90
4697;DHT22;2362;50.780;0.292;2023-09-19T10:42:16;19.00;99.90
4697;DHT22;2362;50.780;0.292;2023-09-19T10:44:45;18.90;99.90
4697;DHT22;2362;50.780;0.292;2023-09-19T10:47:12;18.70;99.90
4697;DHT22;2362;50.780;0.292;2023-09-19T10:49:46;18.50;99.90
4697;DHT22;2362;50.780;0.292;2023-09-19T10:52:14;18.40;99.90
4697;DHT22;2362;50.780;0.292;2023-09-19T10:54:47;18.30;99.90
4697;DHT22;2362;50.780;0.292;2023-09-19T10:57:20;18.40;99.90
4697;DHT22;2362;50.780;0.292;2023-09-19T11:00:03;18.40;99.90
4697;DHT22;2362;50.780;0.292;2023-09-19T11:06:03;18.50;99.90
4697;DHT22;2362;50.780;0.292;2023-09-19T11:11:42;18.40;99.90
4697;DHT22;2362;50.780;0.292;2023-09-19T11:30:38;18.70;99.90
4697;DHT22;2362;50.780;0.292;2023-09-19T11:33:21;18.70;99.90
4697;DHT22;2362;50.780;0.292;2023-09-19T11:36:09;18.70;99.90
4697;DHT22;2362;50.780;0.292;2023-09-19T11:46:33;18.60;99.90
4697;DHT22;2362;50.780;0.292;2023-09-19T11:49:06;18.60;99.90
4697;DHT22;2362;50.780;0.292;2023-09-19T11:51:42;18.60;99.90
4697;DHT22;2362;50.780;0.292;2023-09-19T11:54:14;18.50;99.90
4697;DHT22;2362;50.780;0.292;2023-09-19T11:56:49;18.50;99.90
4697;DHT22;2362;50.780;0.292;2023-09-19T11:59:23;18.50;99.90
4697;DHT22;2362;50.780;0.292;2023-09-19T12:01:53;18.50;99.90
4697;DHT22;2362;50.780;0.292;2023-09-19T12:04:42;18.50;99.90
4697;DHT22;2362;50.780;0.292;2023-09-19T12:07:10;18.70;99.90
4697;DHT22;2362;50.780;0.292;2023-09-19T12:09:41;18.70;99.90
4697;DHT22;2362;50.780;0.292;2023-09-19T12:12:10;18.70;99.90
4697;DHT22;2362;50.780;0.292;2023-09-19T12:14:38;18.60;99.90
4697;DHT22;2362;50.780;0.292;2023-09-19T12:17:05;18.60;99.90
4697;DHT22;2362;50.780;0.292;2023-09-19T12:19:30;18.50;99.90
4697;DHT22;2362;50.780;0.292;2023-09-19T12:21:57;18.50;99.90
4697;DHT22;2362;50.780;0.292;2023-09-19T12:24:26;18.50;99.90
4697;DHT22;2362;50.780;0.292;2023-09-19T12:27:04;18.50;99.90
4697;DHT22;2362;50.780;0.292;2023-09-19T12:29:31;18.40;99.90
4697;DHT22;2362;50.780;0.292;2023-09-19T12:31:58;18.40;99.90
4697;DHT22;2362;50.780;0.292;2023-09-19T12:34:28;18.50;99.90
4697;DHT22;2362;50.780;0.292;2023-09-19T12:37:11;18.50;99.90
4697;DHT22;2362;50.780;0.292;2023-09-19T12:39:50;18.60;99.90
4697;DHT22;2362;50.780;0.292;2023-09-19T12:42:24;18.80;99.90
4697;DHT22;2362;50.780;0.292;2023-09-19T12:44:53;18.90;99.90
4697;DHT22;2362;50.780;0.292;2023-09-19T12:47:22;19.00;99.90
4697;DHT22;2362;50.780;0.292;2023-09-19T12:50:14;19.00;99.90
4697;DHT22;2362;50.780;0.292;2023-09-19T12:52:47;19.00;99.90
4697;DHT22;2362;50.780;0.292;2023-09-19T12:55:25;18.90;99.90
4697;DHT22;2362;50.780;0.292;2023-09-19T12:58:12;18.80;99.90
4697;DHT22;2362;50.780;0.292;2023-09-19T13:00:43;18.60;99.90
4697;DHT22;2362;50.780;0.292;2023-09-19T13:03:26;18.60;99.90
4697;DHT22;2362;50.780;0.292;2023-09-19T13:05:54;18.30;99.90
4697;DHT22;2362;50.780;0.292;2023-09-19T13:08:29;18.10;99.90
4697;DHT22;2362;50.780;0.292;2023-09-19T13:11:22;18.00;99.90
4697;DHT22;2362;50.780;0.292;2023-09-19T13:13:50;18.00;99.90
4697;DHT22;2362;50.780;0.292;2023-09-19T13:16:20;17.90;99.90
4697;DHT22;2362;50.780;0.292;2023-09-19T13:18:54;17.90;99.90
4697;DHT22;2362;50.780;0.292;2023-09-19T13:21:32;17.90;99.90
4697;DHT22;2362;50.780;0.292;2023-09-19T13:24:23;17.90;99.90
4697;DHT22;2362;50.780;0.292;2023-09-19T13:26:51;17.90;99.90
4697;DHT22;2362;50.780;0.292;2023-09-19T13:29:17;18.00;99.90
4697;DHT22;2362;50.780;0.292;2023-09-19T13:32:01;18.10;99.90
4697;DHT22;2362;50.780;0.292;2023-09-19T13:34:27;18.00;99.90
4697;DHT22;2362;50.780;0.292;2023-09-19T13:36:54;18.00;99.90
4697;DHT22;2362;50.780;0.292;2023-09-19T13:39:20;18.00;99.90
4697;DHT22;2362;50.780;0.292;2023-09-19T13:41:47;17.90;99.90
4697;DHT22;2362;50.780;0.292;2023-09-19T13:44:13;17.90;99.90
4697;DHT22;2362;50.780;0.292;2023-09-19T13:46:39;17.90;99.90
4697;DHT22;2362;50.780;0.292;2023-09-19T13:49:06;17.80;99.90
4697;DHT22;2362;50.780;0.292;2023-09-19T13:51:32;17.80;99.90
4697;DHT22;2362;50.780;0.292;2023-09-19T13:53:58;17.80;99.90
4697;DHT22;2362;50.780;0.292;2023-09-19T13:56:25;17.70;99.90
4697;DHT22;2362;50.780;0.292;2023-09-19T13:58:54;17.70;99.90
4697;DHT22;2362;50.780;0.292;2023-09-19T14:01:20;17.70;99.90
4697;DHT22;2362;50.780;0.292;2023-09-19T14:03:46;17.70;99.90
4697;DHT22;2362;50.780;0.292;2023-09-19T14:06:17;17.80;99.90
4697;DHT22;2362;50.780;0.292;2023-09-19T14:08:44;17.80;99.90
4697;DHT22;2362;50.780;0.292;2023-09-19T14:11:13;17.90;99.90
4697;DHT22;2362;50.780;0.292;2023-09-19T14:13:43;18.00;99.90
4697;DHT22;2362;50.780;0.292;2023-09-19T14:16:15;18.00;99.90
4697;DHT22;2362;50.780;0.292;2023-09-19T14:18:41;18.00;99.90
4697;DHT22;2362;50.780;0.292;2023-09-19T14:21:07;18.00;99.90
4697;DHT22;2362;50.780;0.292;2023-09-19T14:23:37;18.10;99.90
4697;DHT22;2362;50.780;0.292;2023-09-19T14:26:03;18.10;99.90
4697;DHT22;2362;50.780;0.292;2023-09-19T14:28:28;18.10;99.90
4697;DHT22;2362;50.780;0.292;2023-09-19T14:30:55;18.10;99.90
4697;DHT22;2362;50.780;0.292;2023-09-19T14:33:21;17.90;99.90
4697;DHT22;2362;50.780;0.292;2023-09-19T14:35:47;17.80;99.90
4697;DHT22;2362;50.780;0.292;2023-09-19T14:38:13;17.70;99.90
4697;DHT22;2362;50.780;0.292;2023-09-19T14:40:39;17.60;99.90
4697;DHT22;2362;50.780;0.292;2023-09-19T14:43:05;17.60;99.90
4697;DHT22;2362;50.780;0.292;2023-09-19T14:45:36;17.60;99.90
4697;DHT22;2362;50.780;0.292;2023-09-19T14:48:01;17.50;99.90
4697;DHT22;2362;50.780;0.292;2023-09-19T14:50:30;17.50;99.90
4697;DHT22;2362;50.780;0.292;2023-09-19T14:52:56;17.40;99.90
4697;DHT22;2362;50.780;0.292;2023-09-19T14:55:23;17.50;99.90
4697;DHT22;2362;50.780;0.292;2023-09-19T14:57:50;17.50;99.90
4697;DHT22;2362;50.780;0.292;2023-09-19T15:00:17;17.50;99.90
4697;DHT22;2362;50.780;0.292;2023-09-19T15:02:45;17.50;99.90
4697;DHT22;2362;50.780;0.292;2023-09-19T15:05:13;17.60;99.90
4697;DHT22;2362;50.780;0.292;2023-09-19T15:07:41;17.60;99.90
4697;DHT22;2362;50.780;0.292;2023-09-19T15:10:07;17.60;99.90
4697;DHT22;2362;50.780;0.292;2023-09-19T15:12:36;17.70;99.90
4697;DHT22;2362;50.780;0.292;2023-09-19T15:15:04;17.80;99.90
4697;DHT22;2362;50.780;0.292;2023-09-19T15:17:33;17.80;99.90
4697;DHT22;2362;50.780;0.292;2023-09-19T15:19:59;17.80;99.90
4697;DHT22;2362;50.780;0.292;2023-09-19T15:22:25;17.90;99.90
4697;DHT22;2362;50.780;0.292;2023-09-19T15:24:52;17.90;99.90
4697;DHT22;2362;50.780;0.292;2023-09-19T15:27:18;18.00;99.90
4697;DHT22;2362;50.780;0.292;2023-09-19T15:29:45;18.00;99.90
4697;DHT22;2362;50.780;0.292;2023-09-19T15:32:11;18.00;99.90
4697;DHT22;2362;50.780;0.292;2023-09-19T15:34:37;18.00;99.90
4697;DHT22;2362;50.780;0.292;2023-09-19T15:37:03;18.00;99.90
4697;DHT22;2362;50.780;0.292;2023-09-19T15:39:32;18.00;99.90
4697;DHT22;2362;50.780;0.292;2023-09-19T15:41:59;17.90;99.90
4697;DHT22;2362;50.780;0.292;2023-09-19T15:44:24;17.90;99.90
4697;DHT22;2362;50.780;0.292;2023-09-19T15:46:52;17.80;99.90
4697;DHT22;2362;50.780;0.292;2023-09-19T15:49:18;17.80;99.90
4697;DHT22;2362;50.780;0.292;2023-09-19T15:51:44;17.70;99.90
4697;DHT22;2362;50.780;0.292;2023-09-19T15:54:11;17.70;99.90
4697;DHT22;2362;50.780;0.292;2023-09-19T15:56:39;17.70;99.90
4697;DHT22;2362;50.780;0.292;2023-09-19T15:59:06;17.70;99.90
4697;DHT22;2362;50.780;0.292;2023-09-19T16:01:32;17.80;99.90
4697;DHT22;2362;50.780;0.292;2023-09-19T16:03:58;17.80;99.90
4697;DHT22;2362;50.780;0.292;2023-09-19T16:06:29;17.80;99.90
4697;DHT22;2362;50.780;0.292;2023-09-19T16:08:57;17.80;99.90
4697;DHT22;2362;50.780;0.292;2023-09-19T16:11:24;17.70;99.90
4697;DHT22;2362;50.780;0.292;2023-09-19T16:13:50;17.80;99.90
4697;DHT22;2362;50.780;0.292;2023-09-19T16:16:18;17.80;99.90
4697;DHT22;2362;50.780;0.292;2023-09-19T16:18:47;17.80;99.90
4697;DHT22;2362;50.780;0.292;2023-09-19T16:21:16;17.70;99.90
4697;DHT22;2362;50.780;0.292;2023-09-19T16:23:48;17.80;99.90
4697;DHT22;2362;50.780;0.292;2023-09-19T16:26:20;17.80;99.90
4697;DHT22;2362;50.780;0.292;2023-09-19T16:28:47;17.80;99.90
4697;DHT22;2362;50.780;0.292;2023-09-19T16:31:14;17.80;99.90
4697;DHT22;2362;50.780;0.292;2023-09-19T16:33:44;17.80;99.90
4697;DHT22;2362;50.780;0.292;2023-09-19T16:36:10;17.90;99.90
4697;DHT22;2362;50.780;0.292;2023-09-19T16:38:37;17.90;99.90
4697;DHT22;2362;50.780;0.292;2023-09-19T16:41:04;17.90;99.90
4697;DHT22;2362;50.780;0.292;2023-09-19T16:43:30;17.90;99.90
4697;DHT22;2362;50.780;0.292;2023-09-19T16:46:03;17.80;99.90
4697;DHT22;2362;50.780;0.292;2023-09-19T16:48:35;17.80;99.90
4697;DHT22;2362;50.780;0.292;2023-09-19T16:51:02;17.80;99.90
4697;DHT22;2362;50.780;0.292;2023-09-19T16:53:34;17.80;99.90
4697;DHT22;2362;50.780;0.292;2023-09-19T16:56:14;17.80;99.90
4697;DHT22;2362;50.780;0.292;2023-09-19T16:58:43;17.80;99.90